createdAt,value
2018-07-24T00:00:48.794Z,14.13
2018-07-24T00:04:52.370Z,14.10
2018-07-24T00:08:56.086Z,13.10
2018-07-24T00:12:59.728Z,14.27
2018-07-24T00:17:03.684Z,14.07
2018-07-24T00:21:07.314Z,13.73
2018-07-24T00:25:12.950Z,14.43
2018-07-24T00:29:16.515Z,15.03
2018-07-24T00:33:20.383Z,13.53
2018-07-24T00:37:23.876Z,13.70
2018-07-24T00:41:28.483Z,13.53
2018-07-24T00:45:32.002Z,13.80
2018-07-24T00:49:35.518Z,13.27
2018-07-24T00:53:41.109Z,14.20
2018-07-24T00:57:44.760Z,13.27
2018-07-24T01:01:48.278Z,14.27
2018-07-24T01:05:52.083Z,14.70
2018-07-24T01:09:55.579Z,14.57
2018-07-24T01:13:59.130Z,13.67
2018-07-24T01:18:02.687Z,12.97
2018-07-24T01:22:11.909Z,14.37
2018-07-24T01:26:15.430Z,14.37
2018-07-24T01:30:18.977Z,13.73
2018-07-24T01:34:22.502Z,13.17
2018-07-24T01:38:26.042Z,13.20
2018-07-24T01:42:29.723Z,12.53
2018-07-24T01:46:33.361Z,12.37
2018-07-24T01:50:36.854Z,13.40
2018-07-24T01:54:40.446Z,13.33
2018-07-24T01:58:44.814Z,12.57
2018-07-24T02:02:48.447Z,13.50
2018-07-24T02:06:52.053Z,12.90
2018-07-24T02:10:55.672Z,14.17
2018-07-24T02:14:59.246Z,12.93
2018-07-24T02:19:03.189Z,12.63
2018-07-24T02:23:06.750Z,12.57
2018-07-24T02:27:10.310Z,12.60
2018-07-24T02:31:13.927Z,12.00
2018-07-24T02:35:17.506Z,11.60
2018-07-24T02:39:21.031Z,12.40
2018-07-24T02:43:24.599Z,12.00
2018-07-24T02:47:28.280Z,11.73
2018-07-24T02:51:33.599Z,11.83
2018-07-24T02:55:37.115Z,12.67
2018-07-24T02:59:40.696Z,12.63
2018-07-24T03:03:44.225Z,12.30
2018-07-24T03:07:47.820Z,11.97
2018-07-24T03:11:51.335Z,12.13
2018-07-24T03:15:56.947Z,12.27
2018-07-24T03:20:00.450Z,12.40
2018-07-24T03:24:04.041Z,11.50
2018-07-24T03:28:07.564Z,11.40
2018-07-24T03:32:11.207Z,12.87
2018-07-24T03:36:15.769Z,11.53
2018-07-24T03:40:19.323Z,11.17
2018-07-24T03:44:22.813Z,11.47
2018-07-24T03:48:30.787Z,11.60
2018-07-24T03:52:34.307Z,11.33
2018-07-24T03:56:37.858Z,11.63
2018-07-24T04:00:41.462Z,12.07
2018-07-24T04:04:45.075Z,12.10
2018-07-24T04:08:48.668Z,12.23
2018-07-24T04:12:52.270Z,11.60
2018-07-24T04:16:55.776Z,12.63
2018-07-24T04:20:59.362Z,9.77
2018-07-24T04:25:02.930Z,10.27
2018-07-24T04:29:06.848Z,11.07
2018-07-24T04:33:10.072Z,10.10
2018-07-24T04:37:13.734Z,10.73
2018-07-24T04:41:17.386Z,10.90
2018-07-24T04:45:20.959Z,10.50
2018-07-24T04:49:24.498Z,11.07
2018-07-24T04:53:38.519Z,10.17
2018-07-24T04:57:42.054Z,10.70
2018-07-24T05:01:45.766Z,11.10
2018-07-24T05:05:49.286Z,10.30
2018-07-24T05:09:52.954Z,10.33
2018-07-24T05:13:57.557Z,10.87
2018-07-24T05:18:01.122Z,11.27
2018-07-24T05:22:04.686Z,10.97
2018-07-24T05:26:13.874Z,11.23
2018-07-24T05:30:17.471Z,11.40
2018-07-24T05:34:21.050Z,10.57
2018-07-24T05:38:28.991Z,10.90
2018-07-24T05:42:32.554Z,11.03
2018-07-24T05:46:41.982Z,10.03
2018-07-24T05:50:45.798Z,9.50
2018-07-24T05:54:49.308Z,9.57
2018-07-24T05:58:53.364Z,9.40
2018-07-24T06:02:56.530Z,9.53
2018-07-24T06:07:00.434Z,10.13
2018-07-24T06:11:04.022Z,10.10
2018-07-24T06:15:10.073Z,9.47
2018-07-24T06:19:15.781Z,10.33
2018-07-24T06:23:19.800Z,8.83
2018-07-24T06:27:23.761Z,8.47
2018-07-24T06:31:27.454Z,7.63
2018-07-24T06:35:31.017Z,7.03
2018-07-24T06:39:34.591Z,8.10
2018-07-24T06:43:38.086Z,7.77
2018-07-24T06:47:42.405Z,8.00
2018-07-24T06:51:46.034Z,6.93
2018-07-24T06:55:49.501Z,6.87
2018-07-24T06:59:53.063Z,6.35
2018-07-24T07:04:01.238Z,6.55
2018-07-24T07:08:04.782Z,6.78
2018-07-24T07:12:19.390Z,5.50
2018-07-24T07:16:24.975Z,5.20
2018-07-24T07:20:38.559Z,5.80
2018-07-24T07:24:42.036Z,5.03
2018-07-24T07:28:47.986Z,5.40
2018-07-24T07:32:51.505Z,5.20
2018-07-24T07:36:55.082Z,5.15
2018-07-24T07:40:58.667Z,5.17
2018-07-24T07:45:01.954Z,4.85
2018-07-24T07:49:08.994Z,4.85
2018-07-24T07:53:14.713Z,5.05
2018-07-24T07:57:18.305Z,4.83
2018-07-24T08:01:22.881Z,4.80
2018-07-24T08:05:26.420Z,4.80
2018-07-24T08:09:29.989Z,4.55
2018-07-24T08:13:34.312Z,4.67
2018-07-24T08:17:37.906Z,4.87
2018-07-24T08:21:41.510Z,5.20
2018-07-24T08:25:45.158Z,4.97
2018-07-24T08:29:48.694Z,5.10
2018-07-24T08:33:52.314Z,5.10
2018-07-24T08:37:59.970Z,4.90
2018-07-24T08:42:03.549Z,5.20
2018-07-24T08:46:09.575Z,4.87
2018-07-24T08:50:13.495Z,4.40
2018-07-24T08:54:18.307Z,4.53
2018-07-24T08:58:23.366Z,4.67
2018-07-24T09:02:26.879Z,4.87
2018-07-24T09:06:30.977Z,4.22
2018-07-24T09:10:51.321Z,4.10
2018-07-24T09:14:57.237Z,4.70
2018-07-24T09:19:00.898Z,3.80
2018-07-24T09:23:04.576Z,3.60
2018-07-24T09:27:08.310Z,4.17
2018-07-24T09:31:11.926Z,3.80
2018-07-24T09:35:15.666Z,3.83
2018-07-24T09:39:22.438Z,4.12
2018-07-24T09:43:27.047Z,3.85
2018-07-24T09:47:30.704Z,3.90
2018-07-24T09:51:34.278Z,4.30
2018-07-24T09:55:37.998Z,4.25
2018-07-24T09:59:42.234Z,4.80
2018-07-24T10:03:45.762Z,4.60
2018-07-24T10:07:49.285Z,4.95
2018-07-24T10:11:53.498Z,4.67
2018-07-24T10:15:57.201Z,4.20
2018-07-24T10:20:03.080Z,4.58
2018-07-24T10:24:07.793Z,4.80
2018-07-24T10:28:11.593Z,4.47
2018-07-24T10:32:15.178Z,4.50
2018-07-24T10:36:19.008Z,4.72
2018-07-24T10:40:22.598Z,4.62
2018-07-24T10:44:26.340Z,4.75
2018-07-24T10:48:29.926Z,4.80
2018-07-24T10:52:33.525Z,4.30
2018-07-24T10:56:37.150Z,4.58
2018-07-24T11:00:40.738Z,4.20
2018-07-24T11:04:45.298Z,4.87
2018-07-24T11:08:48.897Z,4.58
2018-07-24T11:12:52.419Z,4.70
2018-07-24T11:17:14.754Z,4.65
2018-07-24T11:21:18.403Z,4.90
2018-07-24T11:25:22.249Z,4.57
2018-07-24T11:29:25.769Z,4.40
2018-07-24T11:33:29.780Z,5.07
2018-07-24T11:37:39.367Z,4.60
2018-07-24T11:41:43.038Z,4.90
2018-07-24T11:45:46.589Z,4.57
2018-07-24T11:49:50.146Z,5.30
2018-07-24T11:53:53.778Z,4.80
2018-07-24T11:57:57.481Z,4.53
2018-07-24T12:02:01.063Z,4.10
2018-07-24T12:06:04.713Z,4.47
2018-07-24T12:10:08.274Z,4.73
2018-07-24T12:14:12.213Z,4.77
2018-07-24T12:18:17.823Z,4.43
2018-07-24T12:22:22.510Z,4.57
2018-07-24T12:26:26.193Z,3.97
2018-07-24T12:30:29.707Z,4.73
2018-07-24T12:34:33.234Z,4.57
2018-07-24T12:38:36.805Z,4.30
2018-07-24T12:42:41.442Z,4.83
2018-07-24T12:46:45.290Z,4.57
2018-07-24T12:50:48.811Z,4.80
2018-07-24T12:54:52.110Z,4.70
2018-07-24T12:58:55.754Z,4.57
2018-07-24T13:02:59.326Z,4.67
2018-07-24T13:07:04.723Z,3.87
2018-07-24T13:11:09.174Z,4.83
2018-07-24T13:15:12.598Z,4.40
2018-07-24T13:19:16.219Z,4.50
2018-07-24T13:23:19.888Z,4.73
2018-07-24T13:27:23.727Z,4.90
2018-07-24T13:31:28.710Z,4.00
2018-07-24T13:35:32.261Z,4.43
2018-07-24T13:39:35.928Z,4.73
2018-07-24T13:43:39.570Z,4.40
2018-07-24T13:47:43.078Z,4.90
2018-07-24T13:51:51.017Z,4.50
2018-07-24T13:55:54.630Z,4.60
2018-07-24T13:59:58.530Z,4.20
2018-07-24T14:04:04.158Z,4.43
2018-07-24T14:08:07.718Z,4.20
2018-07-24T14:12:11.251Z,4.67
2018-07-24T14:16:14.806Z,4.87
2018-07-24T14:20:18.386Z,4.37
2018-07-24T14:24:22.118Z,4.00
2018-07-24T14:28:25.640Z,4.37
2018-07-24T14:32:31.189Z,4.50
2018-07-24T14:36:34.687Z,5.00
2018-07-24T14:40:38.281Z,4.27
2018-07-24T14:44:42.026Z,4.83
2018-07-24T14:48:45.630Z,4.70
2018-07-24T14:52:49.177Z,4.57
2018-07-24T14:56:52.656Z,4.97
2018-07-24T15:00:55.809Z,4.43
2018-07-24T15:04:59.452Z,4.40
2018-07-24T15:09:06.050Z,4.83
2018-07-24T15:13:10.658Z,4.40
2018-07-24T15:17:14.198Z,4.50
2018-07-24T15:21:17.861Z,4.77
2018-07-24T15:25:21.394Z,4.70
2018-07-24T15:29:26.006Z,4.80
2018-07-24T15:33:29.505Z,4.20
2018-07-24T15:37:34.157Z,4.50
2018-07-24T15:41:37.796Z,4.57
2018-07-24T15:45:41.634Z,4.97
2018-07-24T15:49:45.165Z,4.50
2018-07-24T15:53:48.878Z,4.63
2018-07-24T15:57:52.632Z,4.40
2018-07-24T16:01:59.686Z,4.60
2018-07-24T16:06:03.312Z,4.80
2018-07-24T16:10:07.035Z,4.40
2018-07-24T16:14:10.898Z,4.47
2018-07-24T16:18:14.482Z,4.60
2018-07-24T16:22:18.058Z,4.10
2018-07-24T16:26:21.620Z,5.17
2018-07-24T16:30:25.158Z,4.47
2018-07-24T16:34:28.666Z,4.43
2018-07-24T16:38:32.172Z,4.50
2018-07-24T16:42:36.075Z,4.20
2018-07-24T16:46:39.578Z,4.17
2018-07-24T16:50:44.180Z,4.20
2018-07-24T16:54:47.686Z,4.07
2018-07-24T16:58:51.269Z,4.73
2018-07-24T17:02:55.001Z,4.10
2018-07-24T17:06:58.510Z,4.30
2018-07-24T17:11:02.098Z,4.30
2018-07-24T17:15:09.344Z,4.27
2018-07-24T17:19:12.822Z,4.20
2018-07-24T17:23:16.582Z,4.10
2018-07-24T17:27:26.927Z,4.57
2018-07-24T17:31:30.705Z,4.13
2018-07-24T17:35:37.735Z,4.37
2018-07-24T17:39:41.369Z,4.00
2018-07-24T17:43:45.043Z,4.70
2018-07-24T17:47:48.595Z,4.20
2018-07-24T17:51:52.127Z,4.17
2018-07-24T17:55:55.691Z,4.03
2018-07-24T17:59:59.304Z,4.37
2018-07-24T18:04:02.838Z,3.87
2018-07-24T18:08:08.447Z,4.43
2018-07-24T18:12:14.118Z,4.17
2018-07-24T18:16:21.599Z,3.83
2018-07-24T18:20:25.314Z,3.90
2018-07-24T18:24:28.962Z,3.93
2018-07-24T18:28:32.474Z,3.70
2018-07-24T18:32:35.954Z,4.33
2018-07-24T18:36:39.589Z,4.10
2018-07-24T18:40:43.086Z,4.00
2018-07-24T18:44:46.721Z,4.40
2018-07-24T18:48:51.248Z,4.23
2018-07-24T18:52:54.802Z,4.20
2018-07-24T18:57:01.818Z,4.00
2018-07-24T19:01:05.388Z,3.90
2018-07-24T19:05:08.965Z,4.17
2018-07-24T19:09:12.486Z,4.00
2018-07-24T19:13:15.648Z,4.10
2018-07-24T19:17:19.615Z,4.10
2018-07-24T19:21:23.168Z,3.93
2018-07-24T19:25:27.187Z,4.50
2018-07-24T19:29:30.938Z,3.70
2018-07-24T19:33:45.817Z,4.13
2018-07-24T19:37:50.414Z,4.27
2018-07-24T19:42:00.403Z,4.30
2018-07-24T19:46:04.054Z,4.33
2018-07-24T19:50:14.414Z,4.53
2018-07-24T19:54:17.929Z,4.50
2018-07-24T19:58:21.883Z,4.83
2018-07-24T20:02:25.390Z,4.80
2018-07-24T20:06:32.549Z,4.37
2018-07-24T20:10:36.150Z,4.43
2018-07-24T20:14:39.704Z,4.33
2018-07-24T20:18:43.402Z,4.40
2018-07-24T20:22:47.479Z,4.37
2018-07-24T20:26:51.050Z,4.77
2018-07-24T20:30:56.231Z,4.80
2018-07-24T20:34:59.799Z,4.90
2018-07-24T20:39:04.582Z,5.17
2018-07-24T20:43:09.082Z,4.83
2018-07-24T20:47:13.133Z,5.27
2018-07-24T20:51:16.667Z,5.10
2018-07-24T20:55:20.317Z,5.60
2018-07-24T20:59:24.881Z,5.10
2018-07-24T21:03:36.253Z,5.10
2018-07-24T21:07:40.322Z,5.13
2018-07-24T21:11:44.434Z,5.10
2018-07-24T21:15:48.146Z,15.20
2018-07-24T21:19:51.716Z,9.40
2018-07-24T21:23:56.026Z,6.77
2018-07-24T21:27:59.821Z,6.07
2018-07-24T21:32:04.396Z,6.10
2018-07-24T21:36:08.165Z,6.20
2018-07-24T21:40:11.878Z,5.70
2018-07-24T21:44:16.533Z,5.73
2018-07-24T21:48:20.039Z,5.70
2018-07-24T21:52:24.389Z,5.27
2018-07-24T21:56:28.465Z,5.90
2018-07-24T22:00:35.399Z,5.63
2018-07-24T22:04:44.446Z,5.70
2018-07-24T22:08:52.878Z,6.10
2018-07-24T22:12:56.454Z,5.63
2018-07-24T22:17:00.234Z,5.67
2018-07-24T22:21:03.801Z,5.87
2018-07-24T22:25:07.434Z,6.23
2018-07-24T22:29:11.046Z,5.90
2018-07-24T22:33:16.769Z,5.47
2018-07-24T22:37:22.344Z,5.50
2018-07-24T22:41:25.930Z,5.63
2018-07-24T22:45:29.447Z,6.33
2018-07-24T22:49:37.491Z,6.30
2018-07-24T22:53:41.023Z,6.20
2018-07-24T22:57:44.602Z,6.10
2018-07-24T23:01:48.125Z,5.80
2018-07-24T23:05:51.662Z,6.10
2018-07-24T23:09:55.189Z,5.70
2018-07-24T23:13:58.805Z,5.67
2018-07-24T23:18:02.350Z,6.00
2018-07-24T23:22:05.957Z,5.77
2018-07-24T23:26:09.523Z,6.13
2018-07-24T23:30:13.342Z,6.13
2018-07-24T23:34:16.936Z,6.60
2018-07-24T23:38:20.662Z,6.20
2018-07-24T23:42:24.341Z,5.70
2018-07-24T23:46:28.237Z,5.03
2018-07-24T23:50:31.722Z,5.67
2018-07-24T23:54:35.258Z,5.80
2018-07-24T23:58:38.957Z,5.57
